Terminal Aerodrome Forecast
Issued by NWS

Home | Current Version | Previous Version | Text Only | Print | Product List | Glossary On
Versions: 1 2 3 4 5 6 7 8 9 10 11 12 13 14 15 16 17 18
000
FTUS46 KMTR 260400 AAA
TAFSTS
TAF AMD
KSTS 260414Z 2604/2624 17006KT P6SM OVC010
     FM260900 20002KT P6SM OVC008
     FM262100 17007KT P6SM FEW015=

USA.gov is the U.S. government's official web portal to all federal, state and local government web resources and services.